createdAt,value
2023-03-14T00:01:17.020Z,81.44
2023-03-14T00:03:48.897Z,81.30
2023-03-14T00:06:22.263Z,81.75
2023-03-14T00:08:54.663Z,82.39
2023-03-14T00:11:33.208Z,81.48
2023-03-14T00:14:05.195Z,81.78
2023-03-14T00:16:38.332Z,82.15
2023-03-14T00:19:11.085Z,81.66
2023-03-14T00:21:43.828Z,81.20
2023-03-14T00:24:14.973Z,80.89
2023-03-14T00:26:49.853Z,80.62
2023-03-14T00:29:41.745Z,79.66
2023-03-14T00:32:15.588Z,79.63
2023-03-14T00:34:46.552Z,80.79
2023-03-14T00:37:19.195Z,81.72
2023-03-14T00:39:54.063Z,80.98
2023-03-14T00:42:25.481Z,81.53
2023-03-14T00:44:58.407Z,81.75
2023-03-14T00:47:31.380Z,82.35
2023-03-14T00:50:04.050Z,82.83
2023-03-14T00:52:36.583Z,82.92
2023-03-14T00:55:09.541Z,83.11
2023-03-14T00:57:42.324Z,83.54
2023-03-14T01:00:15.509Z,82.67
2023-03-14T01:02:49.698Z,82.55
2023-03-14T01:05:22.268Z,82.67
2023-03-14T01:07:53.642Z,82.04
2023-03-14T01:10:26.100Z,80.94
2023-03-14T01:12:57.728Z,80.71
2023-03-14T01:15:29.869Z,80.38
2023-03-14T01:18:02.969Z,81.06
2023-03-14T01:20:35.689Z,80.89
2023-03-14T01:23:06.427Z,81.14
2023-03-14T01:25:37.176Z,80.68
2023-03-14T01:28:08.274Z,80.66
2023-03-14T01:30:39.360Z,81.16
2023-03-14T01:33:10.513Z,81.57
2023-03-14T01:35:40.750Z,81.92
2023-03-14T01:38:12.980Z,82.27
2023-03-14T01:40:46.911Z,82.21
2023-03-14T01:43:23.954Z,82.66
2023-03-14T01:46:08.889Z,81.97
2023-03-14T01:49:02.020Z,81.58
2023-03-14T01:52:10.672Z,81.50
2023-03-14T01:54:45.199Z,83.89
2023-03-14T01:57:46.310Z,82.69
2023-03-14T02:00:20.310Z,83.96
2023-03-14T02:03:12.123Z,84.08
2023-03-14T02:05:44.907Z,84.86
2023-03-14T02:08:26.750Z,84.27
2023-03-14T02:11:01.453Z,84.62
2023-03-14T02:13:48.588Z,84.81
2023-03-14T02:16:24.746Z,85.00
2023-03-14T02:19:15.691Z,84.78
2023-03-14T02:22:13.475Z,85.49
2023-03-14T02:25:08.718Z,85.53
2023-03-14T02:27:40.031Z,85.87
2023-03-14T02:30:29.291Z,86.29
2023-03-14T02:33:20.201Z,85.46
2023-03-14T02:36:04.935Z,85.97
2023-03-14T02:38:41.878Z,85.65
2023-03-14T02:41:12.349Z,85.72
2023-03-14T02:43:49.339Z,85.93
2023-03-14T02:46:23.401Z,86.13
2023-03-14T02:49:00.662Z,86.38
2023-03-14T02:51:31.308Z,87.92
2023-03-14T02:54:01.108Z,87.89
2023-03-14T02:56:31.518Z,88.32
2023-03-14T02:59:08.746Z,89.12
2023-03-14T03:01:47.829Z,89.80
2023-03-14T03:04:18.149Z,90.26
2023-03-14T03:06:49.909Z,90.12
2023-03-14T03:09:21.288Z,90.01
2023-03-14T03:11:51.817Z,90.33
2023-03-14T03:14:25.929Z,90.05
2023-03-14T03:16:59.909Z,89.95
2023-03-14T03:19:30.396Z,90.15
2023-03-14T03:22:00.363Z,90.75
2023-03-14T03:24:30.533Z,90.76
2023-03-14T03:27:01.178Z,90.88
2023-03-14T03:29:32.233Z,91.04
2023-03-14T03:32:03.031Z,91.18
2023-03-14T03:34:33.271Z,91.57
2023-03-14T03:37:03.122Z,91.85
2023-03-14T03:39:38.783Z,92.31
2023-03-14T03:42:09.912Z,92.02
2023-03-14T03:44:40.547Z,92.16
2023-03-14T03:47:12.655Z,92.82
2023-03-14T03:49:42.979Z,92.95
2023-03-14T03:52:14.909Z,93.35
2023-03-14T03:54:47.046Z,93.11
2023-03-14T03:57:17.253Z,93.03
2023-03-14T03:59:47.031Z,92.92
2023-03-14T04:02:17.502Z,92.70
2023-03-14T04:04:48.609Z,93.11
2023-03-14T04:07:20.444Z,92.76
2023-03-14T04:09:51.084Z,92.99
2023-03-14T04:12:28.259Z,93.13
2023-03-14T04:15:12.438Z,93.08
2023-03-14T04:17:48.713Z,93.02
2023-03-14T04:20:19.622Z,93.28
2023-03-14T04:22:50.496Z,93.67
2023-03-14T04:25:22.153Z,93.62
2023-03-14T04:27:58.558Z,93.39
2023-03-14T04:30:32.360Z,93.16
2023-03-14T04:33:13.389Z,93.11
2023-03-14T04:35:50.077Z,93.18
2023-03-14T04:38:20.962Z,93.33
2023-03-14T04:40:52.154Z,93.48
2023-03-14T04:43:24.346Z,93.84
2023-03-14T04:46:01.506Z,93.62
2023-03-14T04:48:32.539Z,93.61
2023-03-14T04:51:03.102Z,93.88
2023-03-14T04:53:36.574Z,93.44
2023-03-14T04:56:11.208Z,93.18
2023-03-14T04:58:43.391Z,92.91
2023-03-14T05:01:15.173Z,92.42
2023-03-14T05:03:55.044Z,92.35
2023-03-14T05:06:51.707Z,91.96
2023-03-14T05:09:32.922Z,91.74
2023-03-14T05:12:23.530Z,92.57
2023-03-14T05:15:11.947Z,92.13
2023-03-14T05:18:08.501Z,92.53
2023-03-14T05:20:58.349Z,92.70
2023-03-14T05:23:47.045Z,92.58
2023-03-14T05:26:37.309Z,93.15
2023-03-14T05:29:27.838Z,93.15
2023-03-14T05:32:09.792Z,93.32
2023-03-14T05:35:01.397Z,93.20
2023-03-14T05:37:48.236Z,93.72
2023-03-14T05:40:43.948Z,93.82
2023-03-14T05:43:25.216Z,93.96
2023-03-14T05:46:24.314Z,94.05
2023-03-14T05:49:23.844Z,94.02
2023-03-14T05:52:14.319Z,94.27
2023-03-14T05:54:51.667Z,94.38
2023-03-14T05:57:51.157Z,94.48
2023-03-14T06:00:51.578Z,94.53
2023-03-14T06:03:37.186Z,94.56
2023-03-14T06:06:08.983Z,94.34
2023-03-14T06:08:39.160Z,94.42
2023-03-14T06:11:10.368Z,94.19
2023-03-14T06:13:41.897Z,94.55
2023-03-14T06:16:12.517Z,94.34
2023-03-14T06:18:42.568Z,94.24
2023-03-14T06:21:14.039Z,94.31
2023-03-14T06:23:44.477Z,94.14
2023-03-14T06:26:14.572Z,94.07
2023-03-14T06:28:45.003Z,94.20
2023-03-14T06:31:14.934Z,94.18
2023-03-14T06:33:55.409Z,94.15
2023-03-14T06:36:29.488Z,94.40
2023-03-14T06:39:01.869Z,94.29
2023-03-14T06:41:34.855Z,93.85
2023-03-14T06:44:05.392Z,93.85
2023-03-14T06:46:37.730Z,94.04
2023-03-14T06:49:09.846Z,93.96
2023-03-14T06:51:39.943Z,93.74
2023-03-14T06:54:12.070Z,93.79
2023-03-14T06:56:42.976Z,94.01
2023-03-14T06:59:14.198Z,93.94
2023-03-14T07:01:45.212Z,94.17
2023-03-14T07:04:15.620Z,94.06
2023-03-14T07:06:49.799Z,94.05
2023-03-14T07:09:20.686Z,93.62
2023-03-14T07:11:59.996Z,93.94
2023-03-14T07:14:30.388Z,93.86
2023-03-14T07:17:02.458Z,93.87
2023-03-14T07:19:33.140Z,93.87
2023-03-14T07:22:03.234Z,94.23
2023-03-14T07:24:33.016Z,94.00
2023-03-14T07:27:03.804Z,94.12
2023-03-14T07:29:34.091Z,94.10
2023-03-14T07:32:07.987Z,93.96
2023-03-14T07:34:38.099Z,93.77
2023-03-14T07:37:07.867Z,93.58
2023-03-14T07:39:39.340Z,93.91
2023-03-14T07:42:16.282Z,93.88
2023-03-14T07:45:13.623Z,93.72
2023-03-14T07:47:44.169Z,93.83
2023-03-14T07:50:15.406Z,93.68
2023-03-14T07:52:46.965Z,93.63
2023-03-14T07:55:17.123Z,94.11
2023-03-14T07:57:47.198Z,94.43
2023-03-14T08:00:18.081Z,94.40
2023-03-14T08:02:49.218Z,94.32
2023-03-14T08:05:19.254Z,94.67
2023-03-14T08:07:49.013Z,94.89
2023-03-14T08:10:25.832Z,95.07
2023-03-14T08:13:01.607Z,95.23
2023-03-14T08:15:33.763Z,95.26
2023-03-14T08:18:04.130Z,95.45
2023-03-14T08:20:34.370Z,95.54
2023-03-14T08:23:04.852Z,95.51
2023-03-14T08:25:35.990Z,95.53
2023-03-14T08:28:06.666Z,95.26
2023-03-14T08:30:36.603Z,95.46
2023-03-14T08:33:06.956Z,95.57
2023-03-14T08:35:37.562Z,95.88
2023-03-14T08:38:11.689Z,95.96
2023-03-14T08:40:41.834Z,96.07
2023-03-14T08:43:11.828Z,96.04
2023-03-14T08:45:42.287Z,96.09
2023-03-14T08:48:13.078Z,96.22
2023-03-14T08:50:43.859Z,96.22
2023-03-14T08:53:13.674Z,96.34
2023-03-14T08:55:46.048Z,96.50
2023-03-14T08:58:16.939Z,96.59
2023-03-14T09:00:47.047Z,96.75
2023-03-14T09:03:18.171Z,96.89
2023-03-14T09:05:50.209Z,96.85
2023-03-14T09:08:22.338Z,97.04
2023-03-14T09:10:52.604Z,97.34
2023-03-14T09:13:22.370Z,97.37
2023-03-14T09:15:57.419Z,97.57
2023-03-14T09:18:28.314Z,97.38
2023-03-14T09:21:00.010Z,97.37
2023-03-14T09:23:30.742Z,97.32
2023-03-14T09:26:01.724Z,97.37
2023-03-14T09:28:32.539Z,97.22
2023-03-14T09:31:13.156Z,97.50
2023-03-14T09:33:43.247Z,97.36
2023-03-14T09:36:13.604Z,97.48
2023-03-14T09:38:45.017Z,97.50
2023-03-14T09:41:20.767Z,97.37
2023-03-14T09:43:56.914Z,97.27
2023-03-14T09:46:32.350Z,97.32
2023-03-14T09:49:03.113Z,97.23
2023-03-14T09:51:36.438Z,97.20
2023-03-14T09:54:12.340Z,97.04
2023-03-14T09:56:43.016Z,97.03
2023-03-14T09:59:16.843Z,97.10
2023-03-14T10:01:47.682Z,96.67
2023-03-14T10:04:25.061Z,96.60
2023-03-14T10:06:56.484Z,96.45
2023-03-14T10:09:27.870Z,96.51
2023-03-14T10:12:09.048Z,96.74
2023-03-14T10:14:47.462Z,96.25
2023-03-14T10:17:18.983Z,96.25
2023-03-14T10:19:58.633Z,96.17
2023-03-14T10:22:35.924Z,96.14
2023-03-14T10:25:10.220Z,95.90
2023-03-14T10:27:41.043Z,95.49
2023-03-14T10:30:46.028Z,95.32
2023-03-14T10:33:34.738Z,95.00
2023-03-14T10:36:10.348Z,94.38
2023-03-14T10:38:43.144Z,93.69
2023-03-14T10:41:28.603Z,93.78
2023-03-14T10:44:02.609Z,92.49
2023-03-14T10:46:35.845Z,90.46
2023-03-14T10:49:37.926Z,89.63
2023-03-14T10:52:57.432Z,88.41
2023-03-14T10:55:26.319Z,85.44
2023-03-14T10:57:58.175Z,77.74
2023-03-14T11:00:28.871Z,69.70
2023-03-14T11:03:20.253Z,68.67
2023-03-14T11:06:13.105Z,65.07
2023-03-14T11:08:58.771Z,63.04
2023-03-14T11:11:32.656Z,60.55
2023-03-14T11:14:27.796Z,59.44
2023-03-14T11:17:13.973Z,58.71
2023-03-14T11:19:57.862Z,60.80
2023-03-14T11:22:36.942Z,65.82
2023-03-14T11:25:34.167Z,68.22
2023-03-14T11:28:40.949Z,70.10
2023-03-14T11:31:26.612Z,71.00
2023-03-14T11:34:13.438Z,60.28
2023-03-14T11:37:10.729Z,62.87
2023-03-14T11:39:53.212Z,60.41
2023-03-14T11:42:24.309Z,58.16
2023-03-14T11:44:57.363Z,58.71
2023-03-14T11:47:35.843Z,60.82
2023-03-14T11:50:17.580Z,62.90
2023-03-14T11:53:00.457Z,62.06
2023-03-14T11:55:40.786Z,64.01
2023-03-14T11:58:28.923Z,63.25
2023-03-14T12:01:05.500Z,60.74
2023-03-14T12:03:48.418Z,64.12
2023-03-14T12:06:28.521Z,63.17
2023-03-14T12:09:01.574Z,62.72
2023-03-14T12:12:00.944Z,62.49
2023-03-14T12:14:35.043Z,61.31
2023-03-14T12:17:40.603Z,63.69
2023-03-14T12:20:23.449Z,62.44
2023-03-14T12:22:58.943Z,60.10
2023-03-14T12:25:31.031Z,60.93
2023-03-14T12:28:21.688Z,63.54
2023-03-14T12:30:52.913Z,60.39
2023-03-14T12:33:31.348Z,61.85
2023-03-14T12:36:04.124Z,60.79
2023-03-14T12:38:46.608Z,60.67
2023-03-14T12:41:31.630Z,61.73
2023-03-14T12:44:31.663Z,65.02
2023-03-14T12:47:03.026Z,60.76
2023-03-14T12:49:40.865Z,57.58
2023-03-14T12:52:41.102Z,59.11
2023-03-14T12:55:20.858Z,55.97
2023-03-14T12:58:43.730Z,56.88
2023-03-14T13:01:21.885Z,58.03
2023-03-14T13:03:53.599Z,52.83
2023-03-14T13:06:56.379Z,57.13
2023-03-14T13:09:36.231Z,55.86
2023-03-14T13:12:17.305Z,52.45
2023-03-14T13:14:51.371Z,55.77
2023-03-14T13:17:37.130Z,55.28
2023-03-14T13:20:37.739Z,56.17
2023-03-14T13:23:21.666Z,53.27
2023-03-14T13:25:53.186Z,58.33
2023-03-14T13:28:23.792Z,52.93
2023-03-14T13:30:59.747Z,53.86
2023-03-14T13:33:32.976Z,53.52
2023-03-14T13:36:07.318Z,53.30
2023-03-14T13:38:39.092Z,51.83
2023-03-14T13:41:10.800Z,53.21
2023-03-14T13:43:45.559Z,51.77
2023-03-14T13:46:20.297Z,52.49
2023-03-14T13:48:59.912Z,55.13
2023-03-14T13:51:33.582Z,57.26
2023-03-14T13:54:07.632Z,53.03
2023-03-14T13:56:40.217Z,58.44
2023-03-14T13:59:32.240Z,56.40
2023-03-14T14:02:07.379Z,53.42
2023-03-14T14:04:40.626Z,51.57
2023-03-14T14:07:20.614Z,54.39
2023-03-14T14:09:54.494Z,53.60
2023-03-14T14:12:46.001Z,55.05
2023-03-14T14:15:44.677Z,51.32
2023-03-14T14:18:19.672Z,51.34
2023-03-14T14:20:51.571Z,54.64
2023-03-14T14:23:31.950Z,53.10
2023-03-14T14:26:02.533Z,48.71
2023-03-14T14:28:38.747Z,51.44
2023-03-14T14:31:19.127Z,50.16
2023-03-14T14:34:07.632Z,50.19
2023-03-14T14:36:46.422Z,50.95
2023-03-14T14:39:26.688Z,51.65
2023-03-14T14:41:56.963Z,52.34
2023-03-14T14:44:36.537Z,51.92
2023-03-14T14:47:07.145Z,50.02
2023-03-14T14:49:38.357Z,52.51
2023-03-14T14:52:38.756Z,52.11
2023-03-14T14:55:22.338Z,53.30
2023-03-14T14:57:55.761Z,48.28
2023-03-14T15:00:29.162Z,49.54
2023-03-14T15:03:03.305Z,50.31
2023-03-14T15:05:38.032Z,48.67
2023-03-14T15:08:16.262Z,50.85
2023-03-14T15:10:46.416Z,50.64
2023-03-14T15:13:17.470Z,48.96
2023-03-14T15:15:48.598Z,48.62
2023-03-14T15:18:22.349Z,47.53
2023-03-14T15:20:52.658Z,48.13
2023-03-14T15:23:24.358Z,46.88
2023-03-14T15:25:56.596Z,49.79
2023-03-14T15:28:29.463Z,54.87
2023-03-14T15:31:01.449Z,49.06
2023-03-14T15:33:32.426Z,48.10
2023-03-14T15:36:03.644Z,51.87
2023-03-14T15:38:33.647Z,48.33
2023-03-14T15:41:05.128Z,48.15
2023-03-14T15:43:35.869Z,52.17
2023-03-14T15:46:08.405Z,49.11
2023-03-14T15:48:39.595Z,48.14
2023-03-14T15:51:10.416Z,49.40
2023-03-14T15:53:42.241Z,48.23
2023-03-14T15:56:21.489Z,48.65
2023-03-14T15:58:53.143Z,50.35
2023-03-14T16:01:23.905Z,53.03
2023-03-14T16:03:55.239Z,48.36
2023-03-14T16:06:25.686Z,48.24
2023-03-14T16:08:55.800Z,46.62
2023-03-14T16:11:26.193Z,47.60
2023-03-14T16:13:55.949Z,46.10
2023-03-14T16:16:26.954Z,50.14
2023-03-14T16:19:01.611Z,44.97
2023-03-14T16:21:31.541Z,50.08
2023-03-14T16:24:11.041Z,46.59
2023-03-14T16:26:42.760Z,47.18
2023-03-14T16:29:13.033Z,49.78
2023-03-14T16:31:44.874Z,45.45
2023-03-14T16:34:15.356Z,50.22
2023-03-14T16:36:45.133Z,49.88
2023-03-14T16:39:16.440Z,45.89
2023-03-14T16:41:47.763Z,46.70
2023-03-14T16:44:18.359Z,46.48
2023-03-14T16:46:48.135Z,49.29
2023-03-14T16:49:18.713Z,48.52
2023-03-14T16:51:48.630Z,50.15
2023-03-14T16:54:19.809Z,51.84
2023-03-14T16:56:51.569Z,47.13
2023-03-14T16:59:26.857Z,48.27
2023-03-14T17:01:59.023Z,47.87
2023-03-14T17:04:29.686Z,48.56
2023-03-14T17:06:59.745Z,50.83
2023-03-14T17:09:32.393Z,48.45
2023-03-14T17:12:03.002Z,50.28
2023-03-14T17:14:34.506Z,49.86
2023-03-14T17:17:04.694Z,46.98
2023-03-14T17:19:35.676Z,49.27
2023-03-14T17:22:21.746Z,48.97
2023-03-14T17:24:53.245Z,47.06
2023-03-14T17:27:23.181Z,47.05
2023-03-14T17:29:54.113Z,46.03
2023-03-14T17:32:24.540Z,46.85
2023-03-14T17:34:56.043Z,48.92
2023-03-14T17:37:26.471Z,45.83
2023-03-14T17:39:56.321Z,46.68
2023-03-14T17:42:26.553Z,48.80
2023-03-14T17:44:58.211Z,50.46
2023-03-14T17:47:29.563Z,49.34
2023-03-14T17:49:59.741Z,48.81
2023-03-14T17:52:30.463Z,49.54
2023-03-14T17:55:00.988Z,47.21
2023-03-14T17:57:32.182Z,48.88
2023-03-14T18:00:03.371Z,52.43
2023-03-14T18:02:36.987Z,58.75
2023-03-14T18:05:09.431Z,58.55
2023-03-14T18:07:40.769Z,58.50
2023-03-14T18:10:12.709Z,59.65
2023-03-14T18:12:43.573Z,62.03
2023-03-14T18:15:16.971Z,61.40
2023-03-14T18:17:49.062Z,63.83
2023-03-14T18:20:19.459Z,60.73
2023-03-14T18:22:49.206Z,60.44
2023-03-14T18:25:20.864Z,62.42
2023-03-14T18:27:51.986Z,63.15
2023-03-14T18:30:22.730Z,59.25
2023-03-14T18:32:52.584Z,59.89
2023-03-14T18:35:24.004Z,58.57
2023-03-14T18:37:54.505Z,54.39
2023-03-14T18:40:27.373Z,52.47
2023-03-14T18:42:57.978Z,55.61
2023-03-14T18:45:28.458Z,51.19
2023-03-14T18:47:59.418Z,48.51
2023-03-14T18:50:30.307Z,51.24
2023-03-14T18:53:00.121Z,53.50
2023-03-14T18:55:30.938Z,50.68
2023-03-14T18:58:01.540Z,49.01
2023-03-14T19:00:31.551Z,48.57
2023-03-14T19:03:01.826Z,49.41
2023-03-14T19:05:32.883Z,47.60
2023-03-14T19:08:03.962Z,47.99
2023-03-14T19:10:35.539Z,50.10
2023-03-14T19:13:05.950Z,52.54
2023-03-14T19:15:35.838Z,51.40
2023-03-14T19:18:10.653Z,51.77
2023-03-14T19:20:43.461Z,54.76
2023-03-14T19:23:16.635Z,57.13
2023-03-14T19:25:47.024Z,57.20
2023-03-14T19:28:16.883Z,56.03
2023-03-14T19:30:47.501Z,57.73
2023-03-14T19:33:19.270Z,57.30
2023-03-14T19:35:51.003Z,58.35
2023-03-14T19:38:21.565Z,58.94
2023-03-14T19:40:53.581Z,59.91
2023-03-14T19:43:25.515Z,61.52
2023-03-14T19:45:57.398Z,65.20
2023-03-14T19:48:31.139Z,68.16
2023-03-14T19:51:04.035Z,69.78
2023-03-14T19:53:37.301Z,69.79
2023-03-14T19:56:08.922Z,70.56
2023-03-14T19:58:42.642Z,70.30
2023-03-14T20:01:13.903Z,70.74
2023-03-14T20:03:44.577Z,70.34
2023-03-14T20:06:16.159Z,70.36
2023-03-14T20:08:46.711Z,70.37
2023-03-14T20:11:16.705Z,71.51
2023-03-14T20:13:48.365Z,73.48
2023-03-14T20:16:20.332Z,73.62
2023-03-14T20:18:50.296Z,74.48
2023-03-14T20:21:20.682Z,73.92
2023-03-14T20:23:50.992Z,75.09
2023-03-14T20:26:22.360Z,76.11
2023-03-14T20:28:53.329Z,75.66
2023-03-14T20:31:23.990Z,76.06
2023-03-14T20:33:54.311Z,76.38
2023-03-14T20:36:24.478Z,77.04
2023-03-14T20:38:55.629Z,77.00
2023-03-14T20:41:25.403Z,77.14
2023-03-14T20:43:55.519Z,77.34
2023-03-14T20:46:26.262Z,77.54
2023-03-14T20:48:57.741Z,77.97
2023-03-14T20:51:29.471Z,77.79
2023-03-14T20:54:00.099Z,78.66
2023-03-14T20:56:30.308Z,77.42
2023-03-14T20:59:02.299Z,77.46
2023-03-14T21:01:33.036Z,77.20
2023-03-14T21:04:04.125Z,77.58
2023-03-14T21:06:35.046Z,77.68
2023-03-14T21:09:06.215Z,78.17
2023-03-14T21:11:42.305Z,79.22
2023-03-14T21:14:12.454Z,79.09
2023-03-14T21:16:42.980Z,78.88
2023-03-14T21:19:13.914Z,79.15
2023-03-14T21:21:45.508Z,80.12
2023-03-14T21:24:17.509Z,80.13
2023-03-14T21:26:47.991Z,80.50
2023-03-14T21:31:50.322Z,80.83
2023-03-14T21:34:28.766Z,80.92
2023-03-14T21:36:58.877Z,81.59
2023-03-14T21:39:29.636Z,80.95
2023-03-14T21:42:00.342Z,81.47
2023-03-14T21:44:30.833Z,82.03
2023-03-14T21:47:04.661Z,82.64
2023-03-14T21:49:40.122Z,82.31
2023-03-14T21:52:13.533Z,82.08
2023-03-14T21:54:46.935Z,81.45
2023-03-14T21:57:18.754Z,81.69
2023-03-14T21:59:48.651Z,83.33
2023-03-14T22:02:21.798Z,83.71
2023-03-14T22:04:53.425Z,83.52
2023-03-14T22:07:23.529Z,83.98
2023-03-14T22:09:53.338Z,84.50
2023-03-14T22:12:23.650Z,84.00
2023-03-14T22:14:53.873Z,84.18
2023-03-14T22:17:24.299Z,84.22
2023-03-14T22:19:54.502Z,84.50
2023-03-14T22:22:25.065Z,84.65
2023-03-14T22:24:56.225Z,85.50
2023-03-14T22:27:28.160Z,86.69
2023-03-14T22:29:59.161Z,87.65
2023-03-14T22:32:29.203Z,87.32
2023-03-14T22:34:59.021Z,88.20
2023-03-14T22:37:30.687Z,88.52
2023-03-14T22:40:02.011Z,89.05
2023-03-14T22:42:32.517Z,89.34
2023-03-14T22:45:02.313Z,89.57
2023-03-14T22:47:32.539Z,89.68
2023-03-14T22:50:03.657Z,90.20
2023-03-14T22:52:36.055Z,90.16
2023-03-14T22:55:06.393Z,90.33
2023-03-14T22:57:36.211Z,90.45
2023-03-14T23:00:14.456Z,90.40
2023-03-14T23:02:45.012Z,90.34
2023-03-14T23:05:16.289Z,90.42
2023-03-14T23:07:46.282Z,89.59
2023-03-14T23:10:16.159Z,89.12
2023-03-14T23:12:47.027Z,88.61
2023-03-14T23:15:17.795Z,89.00
2023-03-14T23:17:48.301Z,89.10
2023-03-14T23:20:18.856Z,89.64
2023-03-14T23:22:48.979Z,89.79
2023-03-14T23:25:19.584Z,89.34
2023-03-14T23:27:50.799Z,89.38
2023-03-14T23:30:20.655Z,89.16
2023-03-14T23:32:52.043Z,89.91
2023-03-14T23:35:22.574Z,89.89
2023-03-14T23:37:53.671Z,89.85
2023-03-14T23:40:23.882Z,89.72
2023-03-14T23:42:56.949Z,89.66
2023-03-14T23:45:27.568Z,90.08
2023-03-14T23:47:59.029Z,89.55
2023-03-14T23:50:29.268Z,90.07
2023-03-14T23:52:59.082Z,89.30
2023-03-14T23:55:29.749Z,88.23
2023-03-14T23:58:00.044Z,87.27
